Time;durP1;ratioP1;P1;durP2;ratioP2;P2;SDS_P1;SDS_P2;PMS_P1;PMS_P2;Temp;Humidity;BMP_temperature;BMP_pressure;BME280_temperature;BME280_humidity;BME280_pressure;Samples;Min_cycle;Max_cycle;Signal;HPM_P1;HPM_P2
2022/02/18 00:01:17;;;;;;;6.33;1.10;;;;;;;7.91;57.96;98096.37;1725474;82;21065;-89
2022/02/18 00:03:45;;;;;;;3.47;1.30;;;;;;;7.89;59.77;98064.07;1744904;81;21015;-90
2022/02/18 00:06:11;;;;;;;4.53;1.25;;;;;;;7.84;60.05;98056.05;1714996;80;21087;-91
2022/02/18 00:08:38;;;;;;;3.05;1.30;;;;;;;7.77;60.12;98031.66;1684119;84;21016;-91
2022/02/18 00:11:05;;;;;;;3.50;1.30;;;;;;;7.68;59.86;98025.91;1684411;83;21551;-91
2022/02/18 00:13:33;;;;;;;2.67;0.90;;;;;;;7.58;59.86;98022.78;1692948;81;21558;-92
2022/02/18 00:16:00;;;;;;;7.53;1.47;;;;;;;7.54;59.78;98002.63;1701325;80;21067;-90
2022/02/18 00:18:26;;;;;;;3.95;1.52;;;;;;;7.48;59.63;98009.70;1683169;85;21515;-92
2022/02/18 00:20:53;;;;;;;2.25;1.15;;;;;;;7.44;60.03;98015.86;1678305;85;21056;-90
2022/02/18 00:23:19;;;;;;;3.77;1.05;;;;;;;7.40;59.45;98025.89;1625328;87;21051;-89
2022/02/18 00:25:45;;;;;;;3.90;1.35;;;;;;;7.39;59.37;98046.19;1640559;86;21051;-88
2022/02/18 00:28:12;;;;;;;7.97;1.27;;;;;;;7.37;59.59;98060.00;1632475;87;21387;-92
2022/02/18 00:30:38;;;;;;;5.00;1.40;;;;;;;7.37;60.02;98069.50;1635251;86;21029;-88
2022/02/18 00:33:07;;;;;;;7.25;1.70;;;;;;;7.29;59.23;98092.98;1662248;82;21592;-88
2022/02/18 00:35:33;;;;;;;5.78;1.60;;;;;;;7.26;59.39;98109.02;1747068;80;21051;-90
2022/02/18 00:38:00;;;;;;;4.90;1.52;;;;;;;7.28;59.28;98113.70;1724508;82;21520;-90
2022/02/18 00:40:27;;;;;;;6.97;1.30;;;;;;;7.24;59.03;98127.19;1667357;83;21151;-89
2022/02/18 00:42:54;;;;;;;3.30;1.20;;;;;;;7.26;59.12;98127.98;1694937;85;21602;-89
2022/02/18 00:45:23;;;;;;;4.00;1.62;;;;;;;7.24;59.56;98142.70;1636190;83;21592;-86
2022/02/18 00:47:51;;;;;;;6.67;1.10;;;;;;;7.24;59.49;98144.41;1673587;82;21166;-89
2022/02/18 00:50:22;;;;;;;3.08;1.10;;;;;;;7.18;59.78;98129.91;1733039;81;21102;-89
2022/02/18 00:52:51;;;;;;;2.80;1.12;;;;;;;7.12;60.49;98145.58;1720761;80;21002;-85
2022/02/18 00:55:20;;;;;;;4.97;1.30;;;;;;;7.07;60.72;98141.84;1713492;82;21170;-90
2022/02/18 00:57:48;;;;;;;6.75;1.42;;;;;;;7.03;60.38;98135.50;1704158;82;21134;-91
2022/02/18 01:00:16;;;;;;;3.70;1.42;;;;;;;7.00;60.87;98132.98;1653931;83;21100;-90
2022/02/18 01:02:44;;;;;;;3.17;1.30;;;;;;;6.94;61.03;98139.16;1686838;82;21095;-90
2022/02/18 01:05:12;;;;;;;3.95;1.00;;;;;;;6.91;59.74;98153.02;1721150;80;21150;-90
2022/02/18 01:07:40;;;;;;;4.50;1.50;;;;;;;6.94;60.15;98141.73;1747686;79;21138;-89
2022/02/18 01:10:10;;;;;;;5.75;2.08;;;;;;;6.94;59.42;98164.58;1754611;82;20988;-88
2022/02/18 01:12:39;;;;;;;7.62;1.35;;;;;;;6.94;59.21;98164.99;1744860;78;21107;-91
2022/02/18 01:15:07;;;;;;;4.20;1.27;;;;;;;6.94;60.03;98163.28;1727637;80;21202;-90
2022/02/18 01:17:34;;;;;;;3.90;1.50;;;;;;;6.90;60.38;98162.95;1766394;78;21102;-89
2022/02/18 01:20:02;;;;;;;5.05;1.50;;;;;;;6.84;60.78;98173.41;1763831;79;21044;-91
2022/02/18 01:22:28;;;;;;;2.87;1.30;;;;;;;6.81;60.48;98159.30;1748709;80;21010;-84
2022/02/18 01:24:55;;;;;;;5.50;1.70;;;;;;;6.76;59.47;98148.22;1744419;80;21015;-84
2022/02/18 01:27:21;;;;;;;4.95;1.50;;;;;;;6.74;59.49;98134.49;1739415;80;20961;-87
2022/02/18 01:29:48;;;;;;;3.70;1.40;;;;;;;6.72;58.98;98151.31;1666681;85;21063;-91
2022/02/18 01:32:15;;;;;;;4.60;1.50;;;;;;;6.69;59.74;98138.95;1690617;83;21010;-91
2022/02/18 01:34:42;;;;;;;4.40;1.45;;;;;;;6.63;60.50;98149.42;1679579;85;21032;-91
2022/02/18 01:37:10;;;;;;;1.72;1.10;;;;;;;6.54;60.78;98160.81;1697600;83;21045;-91
2022/02/18 01:39:37;;;;;;;2.30;1.05;;;;;;;6.43;61.00;98183.02;1723281;81;21019;-84
2022/02/18 01:42:04;;;;;;;4.83;1.02;;;;;;;6.40;61.07;98192.56;1743217;81;21015;-82
2022/02/18 01:44:43;;;;;;;5.95;1.98;;;;;;;6.35;61.38;98212.03;1720435;82;21267;-84
2022/02/18 01:47:22;;;;;;;3.65;1.00;;;;;;;6.33;61.00;98226.71;1721535;81;21124;-91
2022/02/18 01:49:53;;;;;;;6.75;1.17;;;;;;;6.28;60.88;98236.27;1717353;81;21095;-90
2022/02/18 01:52:23;;;;;;;3.65;1.77;;;;;;;6.24;61.32;98240.64;1676601;80;21570;-87
2022/02/18 01:54:50;;;;;;;2.85;1.10;;;;;;;6.22;61.54;98245.44;1700282;80;21128;-90
2022/02/18 01:57:16;;;;;;;3.17;1.30;;;;;;;6.16;61.71;98241.25;1706730;83;21056;-87
2022/02/18 01:59:43;;;;;;;4.33;1.77;;;;;;;6.12;61.62;98248.20;1709986;82;20992;-89
2022/02/18 02:02:10;;;;;;;2.15;1.30;;;;;;;6.10;61.78;98264.16;1660362;82;21088;-90
2022/02/18 02:04:37;;;;;;;3.22;1.10;;;;;;;6.13;59.55;98264.11;1639227;86;21107;-90
2022/02/18 02:07:06;;;;;;;3.10;1.10;;;;;;;6.19;59.98;98276.05;1632232;86;21583;-90
2022/02/18 02:09:34;;;;;;;4.35;1.75;;;;;;;6.28;59.01;98280.16;1719189;83;21103;-89
2022/02/18 02:12:04;;;;;;;5.62;1.20;;;;;;;6.29;58.58;98279.30;1717862;80;21221;-92
2022/02/18 02:14:33;;;;;;;4.85;1.50;;;;;;;6.29;59.17;98288.33;1675692;85;21671;-91
2022/02/18 02:16:59;;;;;;;4.87;1.40;;;;;;;6.26;58.03;98283.21;1668722;84;21086;-91
2022/02/18 02:19:27;;;;;;;2.92;1.07;;;;;;;6.28;57.14;98295.64;1678248;83;21101;-90
2022/02/18 02:21:56;;;;;;;2.70;1.12;;;;;;;6.27;57.26;98287.06;1644553;84;21131;-90
2022/02/18 02:24:24;;;;;;;3.02;1.12;;;;;;;6.24;56.59;98292.27;1674388;82;21128;-87
2022/02/18 02:26:52;;;;;;;2.00;0.90;;;;;;;6.26;56.67;98298.70;1674314;82;21077;-85
2022/02/18 02:29:21;;;;;;;2.50;1.47;;;;;;;6.25;56.55;98303.47;1688625;83;21599;-87
2022/02/18 02:31:48;;;;;;;5.17;1.07;;;;;;;6.21;56.50;98305.26;1728441;79;21065;-83
2022/02/18 02:34:15;;;;;;;3.65;1.02;;;;;;;6.04;56.00;98293.13;1630603;79;21703;-89
2022/02/18 02:36:44;;;;;;;6.25;1.40;;;;;;;6.15;55.18;98316.55;1645840;84;21100;-88
2022/02/18 02:39:12;;;;;;;2.30;1.20;;;;;;;6.18;56.41;98316.91;1690307;80;21135;-88
2022/02/18 02:41:39;;;;;;;5.22;1.25;;;;;;;6.14;56.08;98328.19;1642750;82;21167;-90
2022/02/18 02:44:08;;;;;;;3.20;1.20;;;;;;;6.12;54.96;98324.78;1666382;82;21069;-84
2022/02/18 02:46:36;;;;;;;3.92;1.30;;;;;;;6.24;53.84;98332.73;1692521;84;21636;-90
2022/02/18 02:49:05;;;;;;;3.85;1.10;;;;;;;6.25;54.61;98342.19;1696478;82;21118;-87
2022/02/18 02:51:33;;;;;;;3.20;1.45;;;;;;;6.22;54.36;98341.78;1707082;80;21145;-89
2022/02/18 02:54:00;;;;;;;5.22;1.20;;;;;;;6.18;53.57;98352.60;1703246;83;21052;-90
2022/02/18 02:56:30;;;;;;;6.62;2.00;;;;;;;6.21;52.90;98350.84;1737852;81;21095;-89
2022/02/18 02:58:57;;;;;;;2.50;1.30;;;;;;;6.24;53.93;98361.13;1748278;79;21075;-85
2022/02/18 03:01:25;;;;;;;3.58;1.27;;;;;;;6.20;53.94;98363.35;1747831;79;21040;-84
2022/02/18 03:03:52;;;;;;;2.05;1.00;;;;;;;6.18;53.13;98371.95;1748414;79;21066;-85
2022/02/18 03:06:21;;;;;;;3.62;1.57;;;;;;;6.17;53.07;98389.63;1732085;79;21108;-89
2022/02/18 03:08:48;;;;;;;2.05;1.12;;;;;;;6.15;53.21;98393.97;1712299;83;21012;-89
2022/02/18 03:11:22;;;;;;;4.87;1.40;;;;;;;6.11;54.03;98416.84;1695612;81;21077;-83
2022/02/18 03:14:07;;;;;;;3.12;1.20;;;;;;;6.04;54.74;98419.11;1713503;80;21209;-88
2022/02/18 03:16:36;;;;;;;4.65;1.17;;;;;;;6.00;54.60;98416.17;1755602;80;21020;-87
2022/02/18 03:19:03;;;;;;;3.27;1.40;;;;;;;5.96;54.53;98421.82;1741182;79;21127;-90
2022/02/18 03:21:30;;;;;;;4.22;1.20;;;;;;;5.92;54.76;98435.62;1718194;80;21005;-86
2022/02/18 03:23:57;;;;;;;1.75;1.20;;;;;;;5.91;53.78;98441.67;1716844;81;21021;-85
2022/02/18 03:26:24;;;;;;;4.62;1.30;;;;;;;5.91;55.07;98439.54;1719152;80;20988;-86
2022/02/18 03:28:53;;;;;;;6.12;2.15;;;;;;;5.88;54.89;98440.42;1722305;80;21091;-91
2022/02/18 03:31:27;;;;;;;6.78;3.27;;;;;;;5.87;55.54;98440.02;1731403;82;21122;-91
2022/02/18 03:33:53;;;;;;;5.28;2.52;;;;;;;5.85;55.69;98452.09;1715491;82;21011;-91
2022/02/18 03:36:20;;;;;;;4.17;1.80;;;;;;;5.67;55.62;98445.92;1740249;82;21038;-91
2022/02/18 03:38:47;;;;;;;4.33;1.80;;;;;;;5.73;55.88;98459.59;1739711;82;21507;-92
2022/02/18 03:41:13;;;;;;;5.30;1.82;;;;;;;5.71;56.20;98457.89;1712169;82;20980;-89
2022/02/18 03:43:39;;;;;;;17.95;7.40;;;;;;;5.66;56.41;98483.77;1726392;82;21043;-90
2022/02/18 03:46:15;;;;;;;16.12;6.65;;;;;;;5.61;56.66;98497.59;1728352;79;21103;-89
2022/02/18 03:48:41;;;;;;;12.00;5.65;;;;;;;5.54;56.84;98491.23;1729438;80;21122;-91
2022/02/18 03:51:08;;;;;;;8.48;3.77;;;;;;;5.49;57.23;98492.17;1712436;82;20989;-89
2022/02/18 03:53:34;;;;;;;6.22;3.42;;;;;;;5.42;57.67;98491.86;1742496;82;20990;-89
2022/02/18 03:56:08;;;;;;;7.25;2.95;;;;;;;5.34;57.77;98499.25;1737819;80;21047;-85
2022/02/18 03:58:37;;;;;;;8.28;2.80;;;;;;;5.27;57.89;98500.23;1712270;80;21005;-85
2022/02/18 04:01:04;;;;;;;7.90;2.95;;;;;;;5.20;58.08;98496.02;1721525;81;21073;-86
2022/02/18 04:03:31;;;;;;;7.03;3.00;;;;;;;5.16;57.86;98503.37;1728184;80;21196;-89
2022/02/18 04:06:16;;;;;;;14.80;4.65;;;;;;;5.09;58.09;98509.46;1730841;80;21065;-83
2022/02/18 04:08:44;;;;;;;14.25;5.25;;;;;;;4.99;58.92;98516.45;1689270;82;21210;-89
2022/02/18 04:11:13;;;;;;;13.28;4.37;;;;;;;4.90;59.06;98517.41;1671925;81;21167;-85
2022/02/18 04:13:41;;;;;;;8.05;3.40;;;;;;;4.80;59.71;98518.39;1691399;81;21365;-90
2022/02/18 04:16:08;;;;;;;8.13;3.10;;;;;;;4.72;60.49;98526.20;1700896;82;21060;-88
2022/02/18 04:18:36;;;;;;;8.43;3.20;;;;;;;4.64;60.83;98534.89;1748215;80;21099;-90
2022/02/18 04:21:02;;;;;;;8.65;3.30;;;;;;;4.56;61.44;98534.52;1751021;80;21078;-90
2022/02/18 04:23:31;;;;;;;9.48;3.17;;;;;;;4.49;61.71;98537.16;1744539;78;20960;-86
2022/02/18 04:25:58;;;;;;;11.43;4.75;;;;;;;4.39;62.95;98535.10;1723479;78;21083;-88
2022/02/18 04:28:25;;;;;;;12.63;4.90;;;;;;;4.33;62.81;98536.45;1686192;84;21040;-87
2022/02/18 04:30:51;;;;;;;17.57;5.50;;;;;;;4.31;62.75;98543.33;1715027;83;21010;-88
2022/02/18 04:33:18;;;;;;;11.45;5.15;;;;;;;4.29;64.12;98548.92;1716577;83;21018;-88
2022/02/18 04:35:45;;;;;;;13.00;4.62;;;;;;;4.26;65.48;98542.09;1690354;82;21042;-88
2022/02/18 04:38:12;;;;;;;5.80;2.80;;;;;;;4.26;64.57;98534.78;1727140;81;21588;-88
2022/02/18 04:40:39;;;;;;;10.35;4.03;;;;;;;4.28;64.03;98525.36;1747692;81;21238;-85
2022/02/18 04:43:06;;;;;;;7.05;2.50;;;;;;;4.29;63.79;98527.05;1755804;80;21060;-86
2022/02/18 04:45:33;;;;;;;8.05;2.70;;;;;;;4.22;63.21;98522.81;1735754;80;21574;-88
2022/02/18 04:47:59;;;;;;;8.58;2.55;;;;;;;4.11;62.78;98522.91;1744647;81;21040;-89
2022/02/18 04:50:26;;;;;;;8.35;3.17;;;;;;;4.05;62.62;98534.10;1724118;81;20991;-90
2022/02/18 04:52:52;;;;;;;12.33;4.17;;;;;;;3.93;62.93;98522.63;1719876;83;21007;-89
2022/02/18 04:55:19;;;;;;;9.58;3.35;;;;;;;3.86;62.45;98521.83;1720083;83;21549;-88
2022/02/18 04:57:48;;;;;;;8.83;2.52;;;;;;;3.71;63.78;98527.92;1700291;82;21002;-88
2022/02/18 05:00:17;;;;;;;5.78;2.08;;;;;;;3.57;65.47;98534.43;1694209;80;21050;-87
2022/02/18 05:02:46;;;;;;;8.28;2.60;;;;;;;3.48;64.39;98543.50;1754519;82;21042;-89
2022/02/18 05:05:12;;;;;;;6.75;2.55;;;;;;;3.39;65.11;98553.81;1742396;80;20974;-86
2022/02/18 05:07:38;;;;;;;6.05;2.65;;;;;;;3.34;64.54;98559.39;1747144;81;21077;-88
2022/02/18 05:10:07;;;;;;;9.60;2.95;;;;;;;3.31;65.23;98556.85;1751637;81;21539;-87
2022/02/18 05:12:34;;;;;;;8.53;3.30;;;;;;;3.26;65.76;98560.70;1746926;80;21042;-88
2022/02/18 05:15:02;;;;;;;9.05;3.42;;;;;;;3.25;65.98;98556.45;1742060;78;21158;-89
2022/02/18 05:17:29;;;;;;;11.10;3.67;;;;;;;3.25;66.28;98571.02;1731630;80;21673;-86
2022/02/18 05:19:55;;;;;;;10.45;3.90;;;;;;;3.25;65.31;98578.28;1731410;82;21014;-87
2022/02/18 05:22:22;;;;;;;5.85;2.12;;;;;;;3.23;65.65;98581.73;1731221;83;21035;-91
2022/02/18 05:24:48;;;;;;;5.22;1.87;;;;;;;3.22;65.77;98583.42;1731490;83;20994;-90
2022/02/18 05:27:15;;;;;;;9.15;2.42;;;;;;;3.21;65.01;98588.14;1731285;83;20974;-89
2022/02/18 05:29:41;;;;;;;6.67;2.20;;;;;;;3.21;64.65;98603.56;1731500;83;21010;-90
2022/02/18 05:32:09;;;;;;;15.70;3.10;;;;;;;3.19;66.00;98606.13;1731532;83;21006;-91
2022/02/18 05:34:36;;;;;;;8.33;2.50;;;;;;;3.18;65.40;98612.55;1726151;82;21078;-90
2022/02/18 05:37:03;;;;;;;8.63;3.10;;;;;;;3.16;66.36;98612.98;1726347;82;21068;-90
2022/02/18 05:39:29;;;;;;;10.65;2.45;;;;;;;3.17;66.17;98622.41;1728870;83;21096;-91
2022/02/18 05:41:56;;;;;;;15.93;2.80;;;;;;;3.16;65.30;98627.98;1732106;83;21046;-89
2022/02/18 05:44:22;;;;;;;11.08;3.45;;;;;;;3.15;66.89;98633.12;1729955;83;21020;-90
2022/02/18 05:46:49;;;;;;;11.88;4.25;;;;;;;3.16;66.38;98641.23;1731787;83;21015;-89
2022/02/18 05:49:16;;;;;;;10.63;3.00;;;;;;;3.18;66.13;98653.24;1740056;81;21508;-90
2022/02/18 05:51:43;;;;;;;12.25;3.10;;;;;;;3.22;65.68;98650.20;1727015;83;21032;-90
2022/02/18 05:54:10;;;;;;;4.83;2.33;;;;;;;3.30;65.02;98656.61;1749090;81;21030;-90
2022/02/18 05:56:36;;;;;;;5.12;1.98;;;;;;;3.44;64.57;98670.27;1754069;81;21041;-88
2022/02/18 05:59:03;;;;;;;5.12;1.72;;;;;;;3.62;64.11;98663.36;1751614;81;21015;-89
2022/02/18 06:01:30;;;;;;;5.00;1.35;;;;;;;3.79;63.43;98668.85;1751387;81;20975;-89
2022/02/18 06:03:56;;;;;;;6.53;1.77;;;;;;;3.96;62.83;98674.37;1752826;80;21241;-84
2022/02/18 06:06:22;;;;;;;6.67;2.12;;;;;;;4.11;62.51;98678.12;1755928;82;21000;-84
2022/02/18 06:08:49;;;;;;;6.67;1.80;;;;;;;4.29;61.91;98678.88;1727633;83;20988;-84
2022/02/18 06:11:15;;;;;;;4.85;1.65;;;;;;;4.40;61.91;98686.11;1747617;81;20976;-84
2022/02/18 06:13:42;;;;;;;4.28;1.98;;;;;;;4.52;61.40;98686.45;1692329;82;20997;-85
2022/02/18 06:16:08;;;;;;;4.75;1.62;;;;;;;4.59;61.57;98682.95;1728007;83;21067;-84
2022/02/18 06:18:35;;;;;;;9.25;2.05;;;;;;;4.65;60.97;98678.19;1717126;83;20968;-84
2022/02/18 06:21:01;;;;;;;10.25;2.20;;;;;;;4.70;60.91;98683.73;1719366;83;21035;-84
2022/02/18 06:23:28;;;;;;;5.87;2.00;;;;;;;4.72;60.24;98691.01;1700905;82;21076;-85
2022/02/18 06:25:55;;;;;;;5.42;1.82;;;;;;;4.75;60.44;98696.12;1685394;84;21016;-87
2022/02/18 06:28:21;;;;;;;7.37;1.87;;;;;;;4.81;60.50;98692.64;1685949;84;21600;-84
2022/02/18 06:30:47;;;;;;;5.95;2.02;;;;;;;4.85;60.60;98698.19;1679482;85;21889;-90
2022/02/18 06:33:14;;;;;;;7.75;2.55;;;;;;;4.88;59.73;98707.19;1678322;84;21032;-88
2022/02/18 06:35:42;;;;;;;6.08;2.00;;;;;;;4.95;60.19;98715.71;1686030;84;21041;-87
2022/02/18 06:38:09;;;;;;;5.67;2.50;;;;;;;5.02;60.00;98715.25;1678836;82;21003;-84
2022/02/18 06:53:48;;;;;;;7.47;1.80;;;;;;;5.81;57.77;98734.20;1817841;79;22257;-77
2022/02/18 06:56:15;;;;;;;6.80;2.02;;;;;;;5.89;58.53;98740.12;1772848;80;21019;-79
2022/02/18 06:58:42;;;;;;;7.47;2.33;;;;;;;5.91;58.21;98747.85;1784842;80;20999;-80
2022/02/18 07:01:09;;;;;;;9.45;2.77;;;;;;;5.88;57.00;98749.16;1786275;80;21501;-79
2022/02/18 07:03:35;;;;;;;8.73;2.00;;;;;;;5.92;57.05;98750.84;1788100;80;20978;-79
2022/02/18 07:06:06;;;;;;;10.30;1.98;;;;;;;5.91;57.02;98743.54;1772638;80;21569;-81
2022/02/18 07:08:31;;;;;;;4.78;1.77;;;;;;;5.93;57.27;98746.95;1758692;81;21510;-80
2022/02/18 07:10:58;;;;;;;7.25;1.90;;;;;;;5.99;57.28;98755.09;1760297;80;21058;-81
2022/02/18 07:13:25;;;;;;;6.90;1.62;;;;;;;5.95;57.11;98761.16;1762149;80;20940;-81
2022/02/18 07:15:52;;;;;;;8.78;2.22;;;;;;;6.00;56.97;98781.75;1768871;80;20998;-81
2022/02/18 07:18:18;;;;;;;8.28;2.20;;;;;;;6.03;57.44;98761.05;1769047;80;21072;-81
2022/02/18 07:20:46;;;;;;;6.15;1.62;;;;;;;6.05;57.18;98758.89;1766836;80;20973;-79
2022/02/18 07:23:13;;;;;;;6.28;1.70;;;;;;;6.09;56.61;98767.45;1766011;81;20967;-81
2022/02/18 07:25:39;;;;;;;6.45;2.27;;;;;;;6.12;56.71;98764.38;1763749;80;20998;-80
2022/02/18 07:28:06;;;;;;;9.68;2.10;;;;;;;6.16;56.95;98763.91;1726713;81;20991;-78
2022/02/18 07:30:32;;;;;;;8.35;1.92;;;;;;;6.17;56.58;98760.02;1728158;83;20991;-78
2022/02/18 07:32:59;;;;;;;9.80;1.85;;;;;;;6.22;56.51;98768.14;1698068;83;21022;-80
2022/02/18 07:35:32;;;;;;;8.73;1.95;;;;;;;6.28;56.77;98764.19;1703138;82;21044;-79
2022/02/18 07:37:54;;;;;;;7.40;1.98;;;;;;;6.30;56.50;98762.44;1728514;81;21019;-80
2022/02/18 07:40:20;;;;;;;6.05;1.92;;;;;;;6.32;56.33;98764.12;1702638;83;21016;-80
2022/02/18 07:42:47;;;;;;;7.65;2.00;;;;;;;6.38;55.94;98771.78;1700408;83;21008;-79
2022/02/18 07:45:13;;;;;;;6.80;1.82;;;;;;;6.41;55.69;98770.06;1705952;83;21079;-80
2022/02/18 07:47:40;;;;;;;7.78;1.80;;;;;;;6.48;55.43;98780.26;1702316;83;21538;-79
2022/02/18 07:50:07;;;;;;;6.33;1.70;;;;;;;6.53;55.80;98778.48;1720295;83;21069;-77
2022/02/18 07:52:36;;;;;;;6.58;1.82;;;;;;;6.61;55.55;98783.98;1696082;83;21549;-78
2022/02/18 07:55:04;;;;;;;6.45;1.72;;;;;;;6.66;55.46;98780.88;1720360;83;21488;-78
2022/02/18 07:57:30;;;;;;;9.35;1.90;;;;;;;6.70;55.79;98778.67;1721363;83;20998;-78
2022/02/18 07:59:57;;;;;;;8.58;2.10;;;;;;;6.78;55.03;98788.45;1718606;83;22233;-79
2022/02/18 08:02:23;;;;;;;6.08;1.70;;;;;;;6.82;55.10;98784.95;1720972;83;21039;-77
2022/02/18 08:04:51;;;;;;;6.40;1.90;;;;;;;6.85;54.35;98787.50;1718532;81;21073;-79
2022/02/18 08:07:18;;;;;;;5.05;1.98;;;;;;;6.87;54.24;98792.66;1721787;81;21058;-79
2022/02/18 08:09:44;;;;;;;5.62;1.90;;;;;;;6.89;53.49;98783.98;1723691;83;21023;-80
2022/02/18 08:12:11;;;;;;;7.58;2.45;;;;;;;6.93;54.15;98788.67;1716751;82;21749;-79
2022/02/18 08:14:37;;;;;;;6.67;1.60;;;;;;;7.00;54.53;98784.26;1717969;83;21027;-79
2022/02/18 08:17:04;;;;;;;11.30;2.20;;;;;;;7.07;54.18;98776.83;1718172;82;21014;-80
2022/02/18 08:19:30;;;;;;;9.48;2.22;;;;;;;7.16;53.95;98784.42;1716828;82;21542;-80
2022/02/18 08:21:57;;;;;;;9.45;2.00;;;;;;;7.24;53.76;98786.47;1732407;83;21060;-78
2022/02/18 08:24:25;;;;;;;7.70;1.98;;;;;;;7.31;53.54;98792.38;1726505;81;21043;-79
2022/02/18 08:26:53;;;;;;;4.78;1.50;;;;;;;7.36;51.51;98797.02;1727843;83;20991;-78
2022/02/18 08:29:22;;;;;;;8.15;1.80;;;;;;;7.36;49.64;98791.43;1729873;83;21030;-77
2022/02/18 08:31:50;;;;;;;5.12;1.98;;;;;;;7.41;50.09;98798.26;1725099;81;21071;-80
2022/02/18 08:34:17;;;;;;;10.00;1.62;;;;;;;7.44;49.17;98796.89;1732502;81;21031;-79
2022/02/18 08:36:44;;;;;;;6.35;1.67;;;;;;;7.48;49.69;98799.84;1727453;82;21019;-80
2022/02/18 08:39:11;;;;;;;6.70;1.80;;;;;;;7.49;48.96;98807.58;1719249;83;21014;-79
2022/02/18 08:41:38;;;;;;;6.53;2.08;;;;;;;7.49;47.74;98809.32;1724981;83;21010;-79
2022/02/18 08:44:06;;;;;;;3.72;1.30;;;;;;;7.51;49.18;98804.97;1723627;81;21026;-79
2022/02/18 08:46:33;;;;;;;5.35;1.77;;;;;;;7.57;49.08;98802.28;1724123;81;21609;-80
2022/02/18 08:49:00;;;;;;;3.20;1.40;;;;;;;7.60;49.20;98813.88;1726685;83;21029;-80
2022/02/18 08:51:27;;;;;;;6.58;1.62;;;;;;;7.62;48.86;98813.83;1728949;83;21094;-78
2022/02/18 08:53:54;;;;;;;11.15;1.85;;;;;;;7.70;49.11;98802.89;1723812;82;21041;-78
2022/02/18 08:56:21;;;;;;;6.47;2.52;;;;;;;7.75;49.41;98808.41;1728073;82;21013;-80
2022/02/18 08:58:49;;;;;;;4.28;1.60;;;;;;;7.77;48.88;98809.23;1731784;83;21014;-80
2022/02/18 09:01:16;;;;;;;8.60;2.62;;;;;;;7.81;48.89;98809.19;1729060;83;22166;-80
2022/02/18 09:03:44;;;;;;;3.45;1.70;;;;;;;7.70;48.31;98821.01;1720326;83;20989;-79
2022/02/18 09:06:10;;;;;;;5.00;2.05;;;;;;;7.75;48.60;98800.64;1722081;83;21578;-79
2022/02/18 09:08:37;;;;;;;4.80;2.15;;;;;;;7.81;48.63;98819.54;1712428;83;20988;-80
2022/02/18 09:11:04;;;;;;;5.20;2.42;;;;;;;7.82;47.57;98824.70;1700173;83;20996;-79
2022/02/18 09:13:31;;;;;;;8.75;1.65;;;;;;;7.89;47.44;98826.72;1703461;83;21069;-80
2022/02/18 09:15:58;;;;;;;4.72;1.65;;;;;;;7.93;48.12;98824.03;1719768;82;21526;-79
2022/02/18 09:18:26;;;;;;;6.45;1.70;;;;;;;7.99;48.25;98828.70;1693667;83;21071;-80
2022/02/18 09:20:52;;;;;;;4.00;1.62;;;;;;;7.96;47.76;98845.99;1683235;82;21026;-80
2022/02/18 09:23:19;;;;;;;4.90;1.60;;;;;;;7.99;47.58;98836.02;1720358;83;20982;-80
2022/02/18 09:25:47;;;;;;;6.25;1.60;;;;;;;8.01;44.39;98839.42;1721252;83;20958;-82
2022/02/18 09:28:14;;;;;;;3.08;1.62;;;;;;;8.09;46.94;98842.72;1716171;83;21003;-81
2022/02/18 09:30:45;;;;;;;6.30;1.92;;;;;;;8.09;47.43;98847.05;1717759;83;20947;-82
2022/02/18 09:33:14;;;;;;;5.53;1.32;;;;;;;8.14;46.39;98849.97;1733627;82;21298;-81
2022/02/18 09:35:43;;;;;;;3.45;1.45;;;;;;;8.17;45.85;98858.96;1722182;82;20983;-81
2022/02/18 09:38:11;;;;;;;3.98;1.52;;;;;;;8.15;43.89;98871.53;1726244;82;21106;-80
2022/02/18 09:40:39;;;;;;;5.40;1.50;;;;;;;8.22;43.94;98856.75;1719487;82;21060;-81
2022/02/18 09:43:05;;;;;;;4.62;1.52;;;;;;;8.23;44.18;98848.09;1722851;83;21003;-79
2022/02/18 09:45:32;;;;;;;6.72;1.45;;;;;;;8.24;43.63;98853.69;1721267;82;21003;-79
2022/02/18 09:48:00;;;;;;;7.55;1.72;;;;;;;8.19;44.68;98856.80;1717077;82;20984;-83
2022/02/18 09:50:28;;;;;;;6.05;2.10;;;;;;;8.28;45.11;98861.81;1723254;83;21014;-81
2022/02/18 09:52:55;;;;;;;6.12;1.75;;;;;;;8.27;45.28;98862.67;1722349;83;21568;-83
2022/02/18 09:55:21;;;;;;;3.83;1.60;;;;;;;8.32;44.20;98873.81;1724891;82;21039;-80
2022/02/18 09:57:53;;;;;;;4.40;1.72;;;;;;;8.38;43.38;98865.92;1718358;83;21010;-80
2022/02/18 10:00:21;;;;;;;6.65;2.42;;;;;;;8.40;42.80;98865.45;1716514;81;21084;-83
2022/02/18 10:02:51;;;;;;;9.25;2.50;;;;;;;8.45;43.46;98875.30;1716543;83;21069;-82
2022/02/18 10:05:17;;;;;;;5.83;1.92;;;;;;;8.53;42.43;98868.66;1728994;82;21030;-78
2022/02/18 10:08:08;;;;;;;5.97;1.52;;;;;;;8.55;40.51;98878.13;1717975;83;21075;-80
2022/02/18 10:10:38;;;;;;;6.03;1.62;;;;;;;8.63;42.45;98881.84;1734402;83;21006;-78
2022/02/18 10:13:06;;;;;;;7.60;1.60;;;;;;;8.68;39.83;98873.98;1732248;83;21539;-79
2022/02/18 10:15:46;;;;;;;5.42;1.60;;;;;;;8.73;40.63;98877.32;1734114;83;21017;-79
2022/02/18 10:18:13;;;;;;;3.62;1.40;;;;;;;8.75;39.61;98866.05;1712292;83;20941;-77
2022/02/18 10:20:43;;;;;;;2.75;1.45;;;;;;;8.79;40.23;98860.34;1734043;81;21616;-79
2022/02/18 10:23:11;;;;;;;4.08;1.37;;;;;;;8.87;40.74;98864.06;1717739;83;21015;-79
2022/02/18 10:25:42;;;;;;;6.12;1.57;;;;;;;8.90;40.56;98857.53;1698558;83;21008;-79
2022/02/18 10:28:12;;;;;;;3.33;1.50;;;;;;;8.95;38.83;98863.45;1736614;82;20998;-81
2022/02/18 10:30:42;;;;;;;4.10;1.30;;;;;;;9.01;39.25;98862.47;1721187;83;21016;-78
2022/02/18 10:33:20;;;;;;;6.58;1.50;;;;;;;8.93;39.05;98857.02;1701877;84;20987;-79
2022/02/18 10:35:49;;;;;;;2.05;1.25;;;;;;;9.01;36.78;98859.42;1733258;83;21051;-79
2022/02/18 10:38:17;;;;;;;4.60;1.90;;;;;;;9.05;37.86;98857.61;1720246;83;21054;-82
2022/02/18 10:40:48;;;;;;;7.75;1.50;;;;;;;9.14;38.76;98845.74;1718633;81;21065;-80
2022/02/18 10:43:25;;;;;;;4.37;1.35;;;;;;;9.20;39.25;98865.05;1721468;83;21059;-81
2022/02/18 10:46:04;;;;;;;4.42;1.57;;;;;;;9.23;39.95;98858.93;1722381;83;21040;-79
2022/02/18 10:48:48;;;;;;;5.55;1.62;;;;;;;9.26;40.64;98856.28;1719719;83;20983;-80
2022/02/18 10:51:22;;;;;;;3.80;1.57;;;;;;;9.30;41.29;98864.40;1718603;83;21023;-80
2022/02/18 10:53:51;;;;;;;4.20;1.40;;;;;;;9.35;39.64;98861.23;1720772;83;21042;-84
2022/02/18 10:56:21;;;;;;;3.35;1.77;;;;;;;9.36;37.50;98878.52;1710525;82;21148;-80
2022/02/18 10:58:51;;;;;;;11.78;1.60;;;;;;;9.35;39.61;98871.61;1711161;82;21061;-79
2022/02/18 11:01:28;;;;;;;5.33;1.70;;;;;;;9.43;40.50;98876.62;1727603;82;21022;-78
2022/02/18 11:04:04;;;;;;;4.00;1.60;;;;;;;9.45;40.98;98874.42;1700748;83;21039;-79
2022/02/18 11:06:33;;;;;;;3.62;1.20;;;;;;;9.51;39.91;98894.16;1708550;83;21052;-79
2022/02/18 11:09:10;;;;;;;3.92;1.27;;;;;;;9.55;38.35;98897.11;1716145;83;20988;-79
2022/02/18 11:11:44;;;;;;;4.65;2.35;;;;;;;9.55;39.65;98898.41;1712215;83;21067;-79
2022/02/18 11:14:15;;;;;;;5.10;2.72;;;;;;;9.45;38.67;98898.19;1716318;83;21037;-79
2022/02/18 11:16:46;;;;;;;7.95;2.87;;;;;;;9.35;39.12;98907.51;1721240;83;21031;-78
2022/02/18 11:19:13;;;;;;;3.62;1.45;;;;;;;9.28;39.40;98920.20;1715035;83;21015;-79
2022/02/18 11:21:39;;;;;;;9.18;1.98;;;;;;;9.36;40.15;98904.01;1719196;83;21458;-78
2022/02/18 11:24:07;;;;;;;7.10;2.08;;;;;;;9.53;40.06;98913.16;1720241;82;21039;-79
2022/02/18 11:26:35;;;;;;;9.13;2.20;;;;;;;9.57;40.63;98905.72;1715271;83;21026;-81
2022/02/18 11:29:02;;;;;;;5.28;1.47;;;;;;;9.83;40.09;98914.58;1717434;83;21074;-81
2022/02/18 11:31:46;;;;;;;7.22;1.45;;;;;;;9.89;40.01;98919.65;1711644;83;21051;-80
2022/02/18 11:34:41;;;;;;;4.97;1.70;;;;;;;10.06;39.94;98923.94;1699110;83;21075;-80
2022/02/18 11:37:59;;;;;;;5.58;1.62;;;;;;;10.13;39.08;98916.86;1701284;83;21063;-80
2022/02/18 11:40:40;;;;;;;7.83;1.65;;;;;;;10.05;38.30;98944.78;1705933;82;21083;-83
2022/02/18 11:43:27;;;;;;;6.47;1.60;;;;;;;10.25;38.54;98924.78;1690065;83;21057;-85
2022/02/18 11:46:01;;;;;;;10.35;1.42;;;;;;;10.18;37.52;98923.23;1725430;83;21035;-79
2022/02/18 11:48:49;;;;;;;5.72;1.50;;;;;;;10.31;38.93;98922.90;1708580;83;21067;-79
2022/02/18 11:51:21;;;;;;;3.08;1.35;;;;;;;10.49;38.02;98934.54;1718428;83;21078;-80
2022/02/18 11:53:51;;;;;;;3.37;1.40;;;;;;;10.69;37.34;98921.44;1725239;82;21083;-79
2022/02/18 11:56:53;;;;;;;3.08;1.35;;;;;;;10.90;36.62;98923.44;1720942;82;21050;-80
2022/02/18 11:59:18;;;;;;;4.17;1.70;;;;;;;11.19;35.01;98923.00;1721998;83;21369;-80
2022/02/18 12:02:03;;;;;;;4.53;1.80;;;;;;;11.46;34.52;98929.12;1710344;83;21550;-79